Time;durP1;ratioP1;P1;durP2;ratioP2;P2;SDS_P1;SDS_P2;PMS_P1;PMS_P2;Temp;Humidity;BMP_temperature;BMP_pressure;BME280_temperature;BME280_humidity;BME280_pressure;Samples;Min_cycle;Max_cycle;Signal;HPM_P1;HPM_P2
2023/03/23 00:01:49;;;;;;;2.42;1.00;;;13.20;89.60;;;;;;5000220;28;20770;-67
2023/03/23 00:04:16;;;;;;;2.63;1.40;;;13.30;89.10;;;;;;4999609;28;20093;-67
2023/03/23 00:06:42;;;;;;;1.40;0.93;;;13.30;89.00;;;;;;4995352;28;20049;-66
2023/03/23 00:09:09;;;;;;;2.20;1.30;;;13.30;89.00;;;;;;4996669;28;20041;-66
2023/03/23 00:11:35;;;;;;;2.00;1.10;;;13.20;89.50;;;;;;5005099;28;20050;-66
2023/03/23 00:14:02;;;;;;;3.00;1.75;;;13.30;89.10;;;;;;4995784;28;20248;-66
2023/03/23 00:16:38;;;;;;;2.08;1.50;;;13.30;88.80;;;;;;4994248;28;20030;-66
2023/03/23 00:19:06;;;;;;;3.50;1.23;;;13.30;88.70;;;;;;5002511;28;20036;-66
2023/03/23 00:21:38;;;;;;;3.22;1.48;;;13.20;89.50;;;;;;5004623;28;20068;-66
2023/03/23 00:24:15;;;;;;;2.03;1.23;;;13.20;89.50;;;;;;4990565;28;20036;-66
2023/03/23 00:26:42;;;;;;;5.68;1.40;;;13.20;89.30;;;;;;5000289;28;20211;-66
2023/03/23 00:29:18;;;;;;;2.38;0.80;;;13.20;89.80;;;;;;4998417;28;20052;-66
2023/03/23 00:31:48;;;;;;;1.45;1.08;;;13.20;90.00;;;;;;5001281;28;20105;-66
2023/03/23 00:34:19;;;;;;;2.78;1.42;;;13.20;89.50;;;;;;4994532;28;20034;-66
2023/03/23 00:36:48;;;;;;;1.77;1.45;;;13.20;89.20;;;;;;5000524;28;20068;-66
2023/03/23 00:39:16;;;;;;;2.25;1.20;;;13.20;89.00;;;;;;5000630;28;20049;-66
2023/03/23 00:41:42;;;;;;;2.10;1.10;;;13.10;89.30;;;;;;4987190;28;20034;-66
2023/03/23 00:44:08;;;;;;;2.85;0.90;;;13.10;89.60;;;;;;5002551;28;20080;-67
2023/03/23 00:46:44;;;;;;;2.00;1.17;;;13.10;89.60;;;;;;5001093;28;20034;-66
2023/03/23 00:49:12;;;;;;;1.88;1.10;;;13.00;89.80;;;;;;5000465;28;20140;-67
2023/03/23 00:51:38;;;;;;;1.23;1.10;;;13.00;89.80;;;;;;4995129;28;20038;-67
2023/03/23 00:54:04;;;;;;;1.90;1.17;;;13.00;90.00;;;;;;4998310;28;20112;-66
2023/03/23 00:56:30;;;;;;;4.25;1.20;;;13.00;90.20;;;;;;5001292;28;20573;-66
2023/03/23 00:58:56;;;;;;;2.97;1.23;;;12.90;90.00;;;;;;5008494;28;20093;-66
2023/03/23 01:01:22;;;;;;;2.05;1.38;;;12.90;90.10;;;;;;5000111;28;20044;-66
2023/03/23 01:03:49;;;;;;;1.40;1.10;;;12.90;90.20;;;;;;5000417;28;20057;-66
2023/03/23 01:06:15;;;;;;;5.55;1.40;;;12.90;90.40;;;;;;4997719;28;20038;-67
2023/03/23 01:08:46;;;;;;;2.13;1.10;;;12.80;90.50;;;;;;4999335;28;20034;-66
2023/03/23 01:11:15;;;;;;;2.97;1.60;;;12.80;90.70;;;;;;4997214;28;20069;-66
2023/03/23 01:13:42;;;;;;;3.08;1.67;;;12.80;90.80;;;;;;4997357;28;20034;-66
2023/03/23 01:16:08;;;;;;;2.40;1.23;;;12.80;90.70;;;;;;5002774;28;20034;-66
2023/03/23 01:18:35;;;;;;;3.35;1.67;;;12.70;90.80;;;;;;4999480;28;20080;-67
2023/03/23 01:21:12;;;;;;;3.38;1.25;;;12.70;90.70;;;;;;4998686;28;20809;-66
2023/03/23 01:23:39;;;;;;;2.78;1.15;;;12.70;90.80;;;;;;4995406;28;20038;-66
2023/03/23 01:26:08;;;;;;;1.52;1.33;;;12.70;91.00;;;;;;5003602;28;20123;-66
2023/03/23 01:28:35;;;;;;;3.45;1.50;;;12.60;91.20;;;;;;4997815;28;20048;-66
2023/03/23 01:31:03;;;;;;;1.52;1.00;;;12.60;91.40;;;;;;5002887;28;20114;-66
2023/03/23 01:33:30;;;;;;;3.58;1.40;;;12.50;91.60;;;;;;4998663;28;20029;-66
2023/03/23 01:35:56;;;;;;;1.88;1.10;;;12.40;91.70;;;;;;4997707;28;20029;-66
2023/03/23 01:38:22;;;;;;;1.88;1.17;;;12.40;92.00;;;;;;4993099;28;20121;-66
2023/03/23 01:40:48;;;;;;;2.00;1.20;;;12.50;91.80;;;;;;4999112;28;20631;-66
2023/03/23 01:43:15;;;;;;;1.67;1.25;;;12.50;91.60;;;;;;4992692;28;20605;-66
2023/03/23 01:45:43;;;;;;;1.45;1.30;;;12.70;91.40;;;;;;4993954;28;20835;-66
2023/03/23 01:48:12;;;;;;;3.15;1.60;;;12.70;91.40;;;;;;4997560;28;20746;-66
2023/03/23 01:50:59;;;;;;;2.63;1.50;;;12.80;91.00;;;;;;4998619;28;20030;-67
2023/03/23 01:53:31;;;;;;;2.38;1.30;;;12.80;91.20;;;;;;4996244;28;20025;-67
2023/03/23 01:55:59;;;;;;;2.35;1.30;;;12.70;91.40;;;;;;4998303;28;20386;-66
2023/03/23 01:58:30;;;;;;;3.47;1.38;;;12.70;91.60;;;;;;4990290;28;20127;-66
2023/03/23 02:01:00;;;;;;;3.30;1.38;;;12.70;91.60;;;;;;4993456;28;20029;-67
2023/03/23 02:03:28;;;;;;;4.07;1.50;;;12.80;91.50;;;;;;5001139;28;20026;-67
2023/03/23 02:05:58;;;;;;;3.20;1.35;;;12.80;91.30;;;;;;4993338;28;20034;-66
2023/03/23 02:08:35;;;;;;;2.03;1.25;;;12.80;91.10;;;;;;4986481;28;20847;-66
2023/03/23 02:11:08;;;;;;;1.88;1.13;;;12.80;91.30;;;;;;5006843;28;20040;-66
2023/03/23 02:13:34;;;;;;;2.65;1.55;;;12.80;91.40;;;;;;4996519;28;20038;-66
2023/03/23 02:16:07;;;;;;;3.50;1.45;;;12.80;91.40;;;;;;5013917;28;20022;-68
2023/03/23 02:18:57;;;;;;;2.20;1.20;;;12.90;91.40;;;;;;4995939;28;20034;-66
2023/03/23 02:21:54;;;;;;;1.73;1.38;;;12.80;91.50;;;;;;5015746;28;20686;-66
2023/03/23 02:24:23;;;;;;;;;;;12.80;91.50;;;;;;4999225;28;20054;-66
2023/03/23 02:27:08;;;;;;;2.40;1.20;;;12.80;91.20;;;;;;4999091;28;20599;-67
2023/03/23 02:30:00;;;;;;;3.72;1.45;;;12.80;91.30;;;;;;4997385;28;20173;-66
2023/03/23 02:33:04;;;;;;;1.55;1.45;;;12.90;90.90;;;;;;4995185;28;20084;-66
2023/03/23 02:35:38;;;;;;;2.95;1.50;;;12.90;91.30;;;;;;4992738;28;20066;-66
2023/03/23 02:38:15;;;;;;;1.73;1.30;;;13.00;91.00;;;;;;4992586;28;20029;-66
2023/03/23 02:40:47;;;;;;;3.53;1.83;;;13.10;90.70;;;;;;5004960;28;20038;-66
2023/03/23 02:43:25;;;;;;;2.20;1.08;;;13.20;90.50;;;;;;4999300;28;20188;-66
2023/03/23 02:45:52;;;;;;;4.82;1.35;;;13.20;90.60;;;;;;4992297;28;20227;-67
2023/03/23 02:48:22;;;;;;;1.80;1.35;;;13.30;90.40;;;;;;4998566;28;20046;-67
2023/03/23 02:50:52;;;;;;;2.78;1.30;;;13.30;90.50;;;;;;4994643;28;20029;-66
2023/03/23 02:53:24;;;;;;;1.52;1.20;;;13.40;90.20;;;;;;4995913;28;20038;-67
2023/03/23 02:55:54;;;;;;;1.60;1.20;;;13.30;90.20;;;;;;5005965;28;20033;-66
2023/03/23 02:58:21;;;;;;;1.88;1.20;;;13.20;90.30;;;;;;5009103;28;20033;-67
2023/03/23 03:00:51;;;;;;;6.40;1.30;;;13.30;90.40;;;;;;5008864;28;20569;-66
2023/03/23 03:03:24;;;;;;;2.05;1.25;;;13.30;90.20;;;;;;5003597;28;20084;-66
2023/03/23 03:06:21;;;;;;;2.13;1.10;;;13.30;90.10;;;;;;4993455;28;20034;-66
2023/03/23 03:08:58;;;;;;;4.80;1.50;;;13.40;90.20;;;;;;4999894;28;20183;-67
2023/03/23 03:11:28;;;;;;;4.40;1.23;;;13.50;90.00;;;;;;5000908;28;20049;-67
2023/03/23 03:14:17;;;;;;;2.40;1.45;;;13.40;90.20;;;;;;4998645;28;20030;-67
2023/03/23 03:17:01;;;;;;;1.20;0.90;;;13.30;90.30;;;;;;5001292;28;20034;-66
2023/03/23 03:19:32;;;;;;;1.80;1.40;;;13.20;90.50;;;;;;4999952;28;20034;-66
2023/03/23 03:21:59;;;;;;;3.03;1.45;;;13.20;90.40;;;;;;5007449;28;20030;-66
2023/03/23 03:24:42;;;;;;;1.30;1.20;;;13.30;90.20;;;;;;4999070;28;20085;-66
2023/03/23 03:27:16;;;;;;;3.72;1.48;;;13.20;90.30;;;;;;4999403;28;20402;-67
2023/03/23 03:29:47;;;;;;;;;;;13.30;90.50;;;;;;4992899;28;20037;-67
2023/03/23 03:32:22;;;;;;;2.95;1.45;;;13.40;90.50;;;;;;4997837;28;19913;-67
2023/03/23 03:34:50;;;;;;;1.65;1.17;;;13.50;90.70;;;;;;4998480;28;20034;-66
2023/03/23 03:37:18;;;;;;;2.60;1.73;;;13.50;90.40;;;;;;5002230;28;20034;-67
2023/03/23 03:39:46;;;;;;;3.00;1.38;;;13.40;91.00;;;;;;4994935;28;20038;-67
2023/03/23 03:42:12;;;;;;;2.63;1.52;;;13.50;91.30;;;;;;5003384;28;20037;-67
2023/03/23 03:44:38;;;;;;;4.13;1.40;;;13.50;92.10;;;;;;5004346;28;20073;-66
2023/03/23 03:47:03;;;;;;;3.10;1.33;;;13.50;92.90;;;;;;5002583;28;20565;-67
2023/03/23 03:49:30;;;;;;;2.47;1.52;;;13.50;92.90;;;;;;5000000;28;20125;-66
2023/03/23 03:51:56;;;;;;;2.47;1.20;;;13.50;93.70;;;;;;5000431;28;20021;-66
2023/03/23 03:54:33;;;;;;;1.42;1.30;;;13.50;94.30;;;;;;5000198;28;20042;-68
2023/03/23 03:56:59;;;;;;;1.83;1.40;;;13.40;93.70;;;;;;5018607;28;20030;-66
2023/03/23 03:59:37;;;;;;;2.40;1.65;;;13.30;94.00;;;;;;4996026;28;20046;-67
2023/03/23 04:02:08;;;;;;;3.63;1.42;;;13.30;94.70;;;;;;4996654;28;20627;-66
2023/03/23 04:04:34;;;;;;;2.45;1.33;;;13.30;95.30;;;;;;5002687;28;20065;-66
2023/03/23 04:07:01;;;;;;;1.65;1.10;;;13.20;95.70;;;;;;5003237;28;20029;-67
2023/03/23 04:09:28;;;;;;;1.35;1.10;;;13.20;96.00;;;;;;5003748;28;20069;-67
2023/03/23 04:11:54;;;;;;;1.55;1.00;;;13.20;96.20;;;;;;4998928;28;20041;-66
2023/03/23 04:14:49;;;;;;;2.65;1.17;;;13.20;96.50;;;;;;4983213;28;20081;-66
2023/03/23 04:17:17;;;;;;;2.88;1.15;;;13.10;96.80;;;;;;4999332;28;20024;-65
2023/03/23 04:19:44;;;;;;;2.38;1.20;;;13.10;97.10;;;;;;4999790;28;20223;-65
2023/03/23 04:22:10;;;;;;;2.28;1.23;;;13.10;97.20;;;;;;4992302;28;20034;-65
2023/03/23 04:24:37;;;;;;;2.33;1.48;;;13.10;97.60;;;;;;4999720;28;20030;-65
2023/03/23 04:27:06;;;;;;;2.58;1.17;;;13.10;98.00;;;;;;5000176;28;20041;-65
2023/03/23 04:29:34;;;;;;;1.88;1.40;;;13.10;98.30;;;;;;4999093;28;20402;-65
2023/03/23 04:32:06;;;;;;;1.67;1.20;;;13.00;97.00;;;;;;5001287;28;20095;-65
2023/03/23 04:34:37;;;;;;;3.28;1.45;;;13.00;97.10;;;;;;4999002;28;20035;-65
2023/03/23 04:37:03;;;;;;;1.92;1.45;;;12.90;98.00;;;;;;5004138;28;20045;-65
2023/03/23 04:39:33;;;;;;;3.92;1.40;;;12.90;98.00;;;;;;5001552;28;20462;-65
2023/03/23 04:42:01;;;;;;;2.05;1.30;;;12.80;98.40;;;;;;4993502;28;20030;-65
2023/03/23 04:44:43;;;;;;;2.75;1.40;;;12.80;98.40;;;;;;5000333;28;20044;-66
2023/03/23 04:47:13;;;;;;;1.95;1.20;;;12.80;98.80;;;;;;5005926;28;20034;-65
2023/03/23 04:49:47;;;;;;;2.72;1.23;;;12.70;99.30;;;;;;4997461;28;20041;-66
2023/03/23 04:52:25;;;;;;;4.10;1.10;;;12.60;99.10;;;;;;5002312;28;20038;-65
2023/03/23 04:54:58;;;;;;;1.50;0.98;;;12.50;99.40;;;;;;4998353;28;20121;-65
2023/03/23 04:57:28;;;;;;;1.67;1.00;;;12.50;99.50;;;;;;5013880;28;20031;-65
2023/03/23 05:00:20;;;;;;;2.95;1.27;;;12.50;99.40;;;;;;5001831;28;20042;-66
2023/03/23 05:02:52;;;;;;;4.60;1.40;;;12.50;99.80;;;;;;5000444;28;20088;-65
2023/03/23 05:05:21;;;;;;;2.75;1.40;;;12.50;99.80;;;;;;5004507;28;20068;-66
2023/03/23 05:07:49;;;;;;;2.90;1.30;;;12.50;99.90;;;;;;5000875;28;20042;-65
2023/03/23 05:10:18;;;;;;;4.10;1.02;;;12.50;99.90;;;;;;5001663;28;20038;-65
2023/03/23 05:12:45;;;;;;;2.30;1.38;;;12.60;99.90;;;;;;5007070;28;20053;-65
2023/03/23 05:15:14;;;;;;;1.00;0.90;;;12.50;99.90;;;;;;5006703;28;20045;-65
2023/03/23 05:17:43;;;;;;;2.55;1.33;;;12.40;99.90;;;;;;5002809;28;20038;-65
2023/03/23 05:20:22;;;;;;;2.47;1.00;;;12.30;99.90;;;;;;5006190;28;20033;-65
2023/03/23 05:22:52;;;;;;;3.22;1.10;;;12.10;99.90;;;;;;5002531;28;20061;-65
2023/03/23 05:25:27;;;;;;;2.67;1.40;;;12.00;99.90;;;;;;5000404;28;20387;-66
2023/03/23 05:28:00;;;;;;;4.72;1.50;;;11.90;99.90;;;;;;5002887;28;20497;-65
2023/03/23 05:30:44;;;;;;;2.55;1.30;;;11.90;99.90;;;;;;5003147;28;20048;-66
2023/03/23 05:33:12;;;;;;;1.83;1.38;;;11.90;99.90;;;;;;4999708;28;20031;-65
2023/03/23 05:35:52;;;;;;;3.38;1.23;;;11.90;99.90;;;;;;5001366;28;20561;-66
2023/03/23 05:38:24;;;;;;;2.28;1.35;;;11.80;99.90;;;;;;4993387;28;20208;-65
2023/03/23 05:40:52;;;;;;;2.38;1.30;;;11.90;99.90;;;;;;5000049;28;20053;-65
2023/03/23 05:43:24;;;;;;;2.60;1.30;;;11.90;99.90;;;;;;5000582;28;20037;-65
2023/03/23 05:46:12;;;;;;;4.72;1.30;;;11.70;99.90;;;;;;4998111;28;20038;-65
2023/03/23 05:48:39;;;;;;;2.83;1.10;;;11.70;99.90;;;;;;4997185;28;20042;-65
2023/03/23 05:51:09;;;;;;;2.55;1.35;;;11.80;99.90;;;;;;4997156;28;20044;-65
2023/03/23 05:53:39;;;;;;;9.18;1.40;;;11.70;99.90;;;;;;4993663;28;20034;-66
2023/03/23 05:56:06;;;;;;;2.72;1.10;;;11.80;99.90;;;;;;4999894;28;20092;-65
2023/03/23 05:58:54;;;;;;;2.45;1.30;;;11.90;99.90;;;;;;4987931;28;20109;-65
2023/03/23 06:01:20;;;;;;;2.28;1.10;;;11.90;99.90;;;;;;5004162;28;20038;-65
2023/03/23 06:03:46;;;;;;;3.83;1.30;;;11.90;99.90;;;;;;4992442;28;20501;-65
2023/03/23 06:06:22;;;;;;;2.40;1.23;;;12.00;99.90;;;;;;5000682;28;20030;-65
2023/03/23 06:08:53;;;;;;;3.08;1.50;;;11.90;99.90;;;;;;4980450;28;20072;-65
2023/03/23 06:11:28;;;;;;;1.10;1.00;;;11.70;99.90;;;;;;4998195;28;20062;-65
2023/03/23 06:14:13;;;;;;;3.45;1.30;;;11.70;99.90;;;;;;4999962;28;20096;-65
2023/03/23 06:16:38;;;;;;;6.47;1.70;;;11.70;99.90;;;;;;4997538;28;20277;-66
2023/03/23 06:19:08;;;;;;;3.30;1.20;;;11.80;99.90;;;;;;5000659;28;20042;-65
2023/03/23 06:21:37;;;;;;;3.08;1.55;;;11.70;99.90;;;;;;4997813;28;20030;-66
2023/03/23 06:24:17;;;;;;;2.65;1.27;;;11.70;99.90;;;;;;4997746;28;20095;-65
2023/03/23 06:26:44;;;;;;;6.05;1.92;;;11.70;99.90;;;;;;4998377;28;20056;-65
2023/03/23 06:29:15;;;;;;;2.13;1.63;;;11.70;99.90;;;;;;5001475;28;20061;-65
2023/03/23 06:31:49;;;;;;;3.00;1.60;;;11.80;99.90;;;;;;4995443;28;20713;-65
2023/03/23 06:34:15;;;;;;;6.72;1.60;;;11.80;99.90;;;;;;4997852;28;20124;-65
2023/03/23 06:37:10;;;;;;;3.33;1.52;;;11.80;99.90;;;;;;4999167;28;20042;-65
2023/03/23 06:39:48;;;;;;;3.35;1.42;;;11.60;99.90;;;;;;4999728;28;21155;-65
2023/03/23 06:42:28;;;;;;;3.67;1.40;;;11.50;99.90;;;;;;5000207;28;20079;-65
2023/03/23 06:45:14;;;;;;;3.03;1.50;;;11.50;99.90;;;;;;4996823;28;20091;-66
2023/03/23 06:47:41;;;;;;;3.42;1.42;;;11.60;99.90;;;;;;4998112;28;20042;-65
2023/03/23 06:50:07;;;;;;;4.43;1.50;;;11.60;99.90;;;;;;5000206;28;20033;-65
2023/03/23 06:52:35;;;;;;;3.38;1.38;;;11.70;99.90;;;;;;5003634;28;20096;-66
2023/03/23 06:55:00;;;;;;;3.03;1.55;;;11.80;99.90;;;;;;5002145;28;20022;-66
2023/03/23 06:57:26;;;;;;;3.03;1.27;;;11.80;99.90;;;;;;5002550;28;20026;-65
2023/03/23 06:59:52;;;;;;;5.25;1.45;;;11.80;99.90;;;;;;4998842;28;20034;-65
2023/03/23 07:02:19;;;;;;;2.42;1.42;;;11.70;99.90;;;;;;4998069;28;20041;-65
2023/03/23 07:04:51;;;;;;;4.50;1.60;;;11.80;99.90;;;;;;4995908;28;20064;-65
2023/03/23 07:07:22;;;;;;;6.07;2.40;;;11.80;99.90;;;;;;4997183;28;20042;-65
2023/03/23 07:09:54;;;;;;;2.40;1.42;;;11.80;99.90;;;;;;5000407;28;20520;-65
2023/03/23 07:12:22;;;;;;;2.78;1.65;;;11.90;99.90;;;;;;5003988;28;20026;-65
2023/03/23 07:14:50;;;;;;;3.70;2.03;;;11.70;99.90;;;;;;5001892;28;20030;-65
2023/03/23 07:17:15;;;;;;;2.28;1.45;;;11.70;99.90;;;;;;5002939;28;20026;-65
2023/03/23 07:19:57;;;;;;;3.10;1.50;;;11.90;99.90;;;;;;5007503;28;20037;-65
2023/03/23 07:22:23;;;;;;;4.72;1.60;;;11.90;99.90;;;;;;5005528;28;20038;-65
2023/03/23 07:24:57;;;;;;;1.60;1.30;;;11.90;99.90;;;;;;5002056;28;20520;-65
2023/03/23 07:27:29;;;;;;;2.45;1.60;;;11.80;99.90;;;;;;5005929;28;20502;-65
2023/03/23 07:29:58;;;;;;;5.32;1.70;;;11.90;99.90;;;;;;5014279;28;20990;-65
2023/03/23 07:32:26;;;;;;;2.28;1.40;;;11.90;99.90;;;;;;5002590;28;20065;-65
2023/03/23 07:34:55;;;;;;;2.83;1.67;;;11.90;99.90;;;;;;5001667;28;20030;-66
2023/03/23 07:37:32;;;;;;;2.70;1.55;;;12.10;99.90;;;;;;5003859;28;20033;-66
2023/03/23 07:39:58;;;;;;;3.03;1.40;;;12.20;99.90;;;;;;5003394;28;20053;-66
2023/03/23 07:42:24;;;;;;;3.40;1.70;;;12.20;99.90;;;;;;5002450;28;20060;-66
2023/03/23 07:44:56;;;;;;;5.80;1.80;;;12.10;99.90;;;;;;5002709;28;20117;-66
2023/03/23 07:47:22;;;;;;;3.75;1.40;;;12.10;99.90;;;;;;5001948;28;20044;-65
2023/03/23 07:49:48;;;;;;;4.40;1.50;;;12.10;99.90;;;;;;5013889;28;20030;-66
2023/03/23 07:52:25;;;;;;;3.80;1.50;;;12.10;99.90;;;;;;5003694;28;20037;-65
2023/03/23 07:54:51;;;;;;;2.00;1.58;;;12.20;99.90;;;;;;4998623;28;20034;-66
2023/03/23 07:57:24;;;;;;;2.65;1.90;;;12.20;99.90;;;;;;4996782;28;20034;-65
2023/03/23 07:59:52;;;;;;;3.08;1.98;;;12.10;99.90;;;;;;5003539;28;20634;-65
2023/03/23 08:02:18;;;;;;;3.65;1.83;;;12.10;99.90;;;;;;5000565;28;20061;-66
2023/03/23 08:04:47;;;;;;;3.00;1.52;;;12.00;99.90;;;;;;5004414;28;20080;-68
2023/03/23 08:07:16;;;;;;;3.13;1.70;;;12.10;99.90;;;;;;5004699;28;20062;-65
2023/03/23 08:09:51;;;;;;;5.88;2.05;;;12.10;99.90;;;;;;4992076;28;20115;-65
2023/03/23 08:12:44;;;;;;;4.47;1.88;;;12.20;99.90;;;;;;5002820;28;20875;-65
2023/03/23 08:15:22;;;;;;;3.60;1.73;;;12.10;99.90;;;;;;5002293;28;20038;-65
2023/03/23 08:18:10;;;;;;;2.65;1.80;;;12.10;99.90;;;;;;4998463;28;20026;-65
2023/03/23 08:20:59;;;;;;;3.33;1.83;;;12.00;99.90;;;;;;4988330;28;20041;-65
2023/03/23 08:23:32;;;;;;;2.33;1.65;;;12.10;99.90;;;;;;4999217;28;20076;-65
2023/03/23 08:26:17;;;;;;;2.78;1.58;;;12.10;99.90;;;;;;5001035;28;20049;-65
2023/03/23 08:29:00;;;;;;;4.78;1.55;;;12.20;99.90;;;;;;4997393;28;20021;-65
2023/03/23 08:31:44;;;;;;;4.93;1.65;;;12.20;99.90;;;;;;5000752;28;20104;-65
2023/03/23 08:34:42;;;;;;;4.15;1.70;;;12.20;99.90;;;;;;4993090;28;20034;-65
2023/03/23 08:37:21;;;;;;;1.50;1.30;;;12.30;99.90;;;;;;5000480;28;20034;-65
2023/03/23 08:39:54;;;;;;;2.70;1.83;;;12.50;99.90;;;;;;5001055;28;20085;-65
2023/03/23 08:42:40;;;;;;;4.05;1.65;;;12.50;99.90;;;;;;4997717;28;20051;-65
2023/03/23 08:45:27;;;;;;;5.78;1.67;;;12.50;99.90;;;;;;5004823;28;20045;-65
2023/03/23 08:47:55;;;;;;;2.33;1.58;;;12.60;99.90;;;;;;5003826;28;20100;-65
2023/03/23 08:50:28;;;;;;;2.42;1.52;;;12.70;99.90;;;;;;5001772;28;20136;-65
2023/03/23 08:53:13;;;;;;;4.10;1.60;;;12.70;99.90;;;;;;4986937;28;20128;-67
2023/03/23 08:56:07;;;;;;;3.05;1.70;;;12.70;99.90;;;;;;4994959;28;20116;-66
2023/03/23 08:59:06;;;;;;;3.15;1.42;;;12.70;99.90;;;;;;4999166;28;20708;-67
2023/03/23 09:02:04;;;;;;;4.68;1.73;;;12.80;99.90;;;;;;4984482;28;20542;-67
2023/03/23 09:04:42;;;;;;;3.88;1.92;;;12.90;99.90;;;;;;4995030;28;20565;-67
2023/03/23 09:07:23;;;;;;;7.05;1.83;;;12.90;99.90;;;;;;4999731;28;20030;-66
2023/03/23 09:09:49;;;;;;;2.53;1.70;;;12.80;99.90;;;;;;4995019;28;20038;-66
2023/03/23 09:12:15;;;;;;;2.17;1.73;;;12.70;99.90;;;;;;5001213;28;20034;-68
2023/03/23 09:14:41;;;;;;;3.38;1.58;;;12.80;99.90;;;;;;4998362;28;20045;-67
2023/03/23 09:17:07;;;;;;;1.95;1.52;;;12.80;99.90;;;;;;5001218;28;20030;-67
2023/03/23 09:19:34;;;;;;;6.00;1.25;;;13.00;99.90;;;;;;4998996;28;20144;-67
2023/03/23 09:22:01;;;;;;;3.97;1.33;;;13.20;99.90;;;;;;5000827;28;20675;-66
2023/03/23 09:24:27;;;;;;;4.18;1.63;;;13.40;99.90;;;;;;4995843;28;20041;-67
2023/03/23 09:26:53;;;;;;;3.50;1.20;;;13.70;99.90;;;;;;4986279;28;20046;-67
2023/03/23 09:29:20;;;;;;;2.28;1.30;;;14.10;99.90;;;;;;4974757;28;20116;-67
2023/03/23 09:31:46;;;;;;;2.75;1.48;;;14.40;99.90;;;;;;4976118;28;20068;-67
2023/03/23 09:34:15;;;;;;;2.70;1.73;;;14.50;99.90;;;;;;4979885;28;20062;-67
2023/03/23 09:36:42;;;;;;;3.05;1.15;;;14.50;99.90;;;;;;4976854;28;20034;-67
2023/03/23 09:39:11;;;;;;;4.10;1.30;;;14.30;99.90;;;;;;4973166;28;20045;-67
2023/03/23 09:42:20;;;;;;;3.88;1.70;;;14.20;99.90;;;;;;4984376;28;20042;-67
2023/03/23 09:45:08;;;;;;;6.32;2.40;;;14.10;99.90;;;;;;4967398;28;20112;-67
2023/03/23 09:48:08;;;;;;;2.35;1.23;;;14.20;99.90;;;;;;4980977;28;20062;-66
2023/03/23 09:50:37;;;;;;;2.05;1.38;;;14.30;99.90;;;;;;4972564;28;20051;-67
2023/03/23 09:53:37;;;;;;;1.35;1.13;;;14.30;99.90;;;;;;4975723;28;20037;-66
2023/03/23 09:56:14;;;;;;;3.30;1.48;;;14.20;99.90;;;;;;4976197;28;20121;-67
2023/03/23 09:58:58;;;;;;;2.45;1.40;;;14.20;99.90;;;;;;4973292;28;20053;-67
2023/03/23 10:01:35;;;;;;;2.17;1.33;;;14.00;99.90;;;;;;4979038;28;20117;-67
2023/03/23 10:04:14;;;;;;;5.93;1.42;;;14.10;99.90;;;;;;4976194;28;20040;-67
2023/03/23 10:06:40;;;;;;;6.53;1.80;;;14.30;99.90;;;;;;4978226;28;20057;-67
2023/03/23 10:09:08;;;;;;;1.80;1.00;;;14.40;99.90;;;;;;4979725;28;20030;-68
2023/03/23 10:12:02;;;;;;;1.73;1.20;;;14.50;99.90;;;;;;4977198;28;20039;-67
2023/03/23 10:14:41;;;;;;;2.45;1.40;;;14.50;99.90;;;;;;4974065;28;20038;-67
2023/03/23 10:17:24;;;;;;;3.50;1.13;;;14.40;99.90;;;;;;4976284;28;20026;-68
2023/03/23 10:20:17;;;;;;;3.47;1.10;;;14.30;99.90;;;;;;4978153;28;20409;-68
2023/03/23 10:22:56;;;;;;;1.58;1.40;;;14.40;99.90;;;;;;4969674;28;20498;-68
2023/03/23 10:25:31;;;;;;;1.95;1.17;;;14.40;99.90;;;;;;4975704;28;20443;-68
2023/03/23 10:28:12;;;;;;;1.80;1.25;;;14.40;99.90;;;;;;4975991;28;20569;-68
2023/03/23 10:30:40;;;;;;;2.95;1.25;;;14.50;99.90;;;;;;4974873;28;20046;-68
2023/03/23 10:33:22;;;;;;;4.43;1.58;;;14.50;99.90;;;;;;4975305;28;20069;-68
2023/03/23 10:35:51;;;;;;;2.45;1.55;;;14.60;99.90;;;;;;4976796;28;20030;-67
2023/03/23 10:38:29;;;;;;;3.75;1.55;;;14.70;99.90;;;;;;4977302;28;20049;-67
2023/03/23 10:41:22;;;;;;;2.08;1.25;;;14.50;99.90;;;;;;4976528;28;20038;-67
2023/03/23 10:43:50;;;;;;;1.50;1.02;;;14.40;99.90;;;;;;4982441;28;20050;-65
2023/03/23 10:46:25;;;;;;;2.53;1.20;;;14.40;99.90;;;;;;4976559;28;20050;-67
2023/03/23 10:48:52;;;;;;;1.23;1.13;;;14.30;99.90;;;;;;4969918;28;20043;-68
2023/03/23 10:51:23;;;;;;;1.98;1.20;;;14.30;99.90;;;;;;4982606;28;20062;-68
2023/03/23 10:53:57;;;;;;;1.23;1.10;;;14.40;99.90;;;;;;4980266;28;20035;-68
2023/03/23 10:56:27;;;;;;;2.00;1.17;;;14.30;99.90;;;;;;4977008;28;20038;-67
2023/03/23 10:58:54;;;;;;;1.63;1.10;;;14.30;99.90;;;;;;4981997;28;20085;-67
2023/03/23 11:01:33;;;;;;;3.80;1.42;;;14.30;99.90;;;;;;4984460;28;20042;-67
2023/03/23 11:04:00;;;;;;;1.88;1.40;;;14.30;99.90;;;;;;4979607;28;20113;-64
2023/03/23 11:06:39;;;;;;;1.88;1.38;;;14.30;99.90;;;;;;4979434;28;20042;-67
2023/03/23 11:09:15;;;;;;;1.60;1.02;;;14.40;99.90;;;;;;4978354;28;20072;-66
2023/03/23 11:11:45;;;;;;;2.58;1.40;;;14.30;99.90;;;;;;4979692;28;20038;-65
2023/03/23 11:14:18;;;;;;;2.67;1.42;;;14.30;99.90;;;;;;4980478;28;20491;-66
2023/03/23 11:16:50;;;;;;;1.92;1.38;;;14.40;99.90;;;;;;4979117;28;20086;-67
2023/03/23 11:19:25;;;;;;;2.40;1.33;;;14.60;99.90;;;;;;4977677;28;20027;-68
2023/03/23 11:21:54;;;;;;;1.45;1.13;;;14.60;99.90;;;;;;4979337;28;20077;-67
2023/03/23 11:24:26;;;;;;;3.70;1.50;;;14.60;99.90;;;;;;4982779;28;20076;-66
2023/03/23 11:26:56;;;;;;;1.88;0.90;;;14.70;99.90;;;;;;4983571;28;20038;-65
2023/03/23 11:29:25;;;;;;;2.00;1.20;;;14.70;99.90;;;;;;4981375;28;20438;-67
2023/03/23 11:32:05;;;;;;;2.17;1.20;;;14.60;99.90;;;;;;4985427;28;20038;-65
2023/03/23 11:34:35;;;;;;;1.70;1.35;;;14.60;99.90;;;;;;4979749;28;20034;-65
2023/03/23 11:37:09;;;;;;;2.92;1.15;;;14.70;99.90;;;;;;4980608;28;20425;-66
2023/03/23 11:39:57;;;;;;;5.25;1.00;;;14.60;99.80;;;;;;4980495;28;20113;-67
2023/03/23 11:42:34;;;;;;;2.80;1.42;;;14.60;99.50;;;;;;4980565;28;20039;-65
2023/03/23 11:45:20;;;;;;;3.15;1.70;;;14.80;99.90;;;;;;4983943;28;20054;-65
2023/03/23 11:48:11;;;;;;;3.45;1.33;;;15.10;99.90;;;;;;4984206;28;20128;-65
2023/03/23 11:51:01;;;;;;;3.80;1.55;;;15.40;99.20;;;;;;4991323;28;20514;-67
2023/03/23 11:54:11;;;;;;;2.55;1.92;;;15.30;98.20;;;;;;4979801;28;20691;-67
2023/03/23 11:56:39;;;;;;;4.90;1.85;;;15.40;99.00;;;;;;4978662;28;20083;-67
2023/03/23 11:59:26;;;;;;;6.00;3.10;;;15.30;98.40;;;;;;4980873;28;20554;-67
2023/03/23 12:02:12;;;;;;;3.00;2.10;;;15.30;98.70;;;;;;4979872;28;20042;-65
2023/03/23 12:04:38;;;;;;;;;;;15.40;97.70;;;;;;4978862;28;20091;-68
2023/03/23 12:07:18;;;;;;;3.03;2.60;;;15.30;97.90;;;;;;4981156;28;19914;-67
2023/03/23 12:09:48;;;;;;;3.55;1.92;;;15.30;97.50;;;;;;4983253;28;20426;-67
2023/03/23 12:12:58;;;;;;;1.75;1.17;;;15.20;97.80;;;;;;4979354;28;20031;-67
2023/03/23 12:15:28;;;;;;;3.42;3.03;;;15.10;97.80;;;;;;4979058;28;20750;-68
2023/03/23 12:18:17;;;;;;;6.45;5.22;;;15.20;98.00;;;;;;4978383;28;20571;-67
2023/03/23 12:20:46;;;;;;;5.80;3.85;;;15.30;97.70;;;;;;4974044;28;20399;-67
2023/03/23 12:23:30;;;;;;;8.85;6.13;;;15.40;97.80;;;;;;4980756;28;20031;-67
2023/03/23 12:25:56;;;;;;;5.97;5.30;;;15.50;97.70;;;;;;4976549;28;20511;-67
2023/03/23 12:28:41;;;;;;;3.03;1.38;;;15.80;96.50;;;;;;4979753;28;20050;-67
2023/03/23 12:31:38;;;;;;;13.98;9.82;;;15.80;96.40;;;;;;4979999;28;20060;-66
2023/03/23 12:34:03;;;;;;;;;;;15.90;96.30;;;;;;4980353;28;20030;-67
2023/03/23 12:36:35;;;;;;;2.63;1.67;;;15.70;96.10;;;;;;4979938;28;19919;-67
2023/03/23 12:39:13;;;;;;;2.05;1.10;;;15.60;96.20;;;;;;4971703;28;20034;-67
2023/03/23 12:41:53;;;;;;;4.80;1.25;;;15.50;95.40;;;;;;4982996;28;20030;-67
2023/03/23 12:44:27;;;;;;;3.72;1.67;;;15.50;95.40;;;;;;4973173;28;20137;-67
2023/03/23 12:47:13;;;;;;;2.85;1.90;;;15.70;95.80;;;;;;4972829;28;20500;-67
2023/03/23 12:49:49;;;;;;;2.55;1.30;;;15.80;94.70;;;;;;4977425;28;20049;-68
2023/03/23 12:52:28;;;;;;;;;;;15.80;95.00;;;;;;4980985;28;20054;-67
2023/03/23 12:55:19;;;;;;;6.20;2.28;;;15.90;95.20;;;;;;4977885;28;19918;-68
2023/03/23 12:58:06;;;;;;;3.95;1.33;;;16.30;96.00;;;;;;4978562;28;20030;-67
2023/03/23 13:00:54;;;;;;;3.67;1.20;;;16.70;95.00;;;;;;4978035;28;20100;-67
2023/03/23 13:03:26;;;;;;;7.82;3.08;;;16.80;94.30;;;;;;4971288;28;20108;-68
2023/03/23 13:06:08;;;;;;;4.82;3.00;;;16.90;93.00;;;;;;4976972;28;20027;-67
2023/03/23 13:08:42;;;;;;;2.22;1.88;;;17.00;93.30;;;;;;4969548;28;20045;-67
2023/03/23 13:11:19;;;;;;;2.72;1.90;;;17.10;91.60;;;;;;4974445;28;20132;-66
2023/03/23 13:13:59;;;;;;;4.30;2.78;;;17.30;92.10;;;;;;4975383;28;20035;-67
2023/03/23 13:16:41;;;;;;;5.63;1.40;;;17.30;92.50;;;;;;4976938;28;20552;-66
2023/03/23 13:19:19;;;;;;;3.03;0.98;;;17.10;91.10;;;;;;4976154;28;20145;-67
2023/03/23 13:21:56;;;;;;;4.00;1.30;;;17.10;91.10;;;;;;4973331;28;20040;-66
2023/03/23 13:24:27;;;;;;;2.70;1.10;;;17.00;91.50;;;;;;4976814;28;20053;-66